sensor_id;sensor_type;location;lat;lon;timestamp;P1;durP1;ratioP1;P2;durP2;ratioP2
7173;SDS011;3628;48.654;8.932;2023-12-29T00:01:54;2.57;;;1.30;;
7173;SDS011;3628;48.654;8.932;2023-12-29T00:04:19;1.50;;;1.33;;
7173;SDS011;3628;48.654;8.932;2023-12-29T00:06:45;2.83;;;1.20;;
7173;SDS011;3628;48.654;8.932;2023-12-29T00:09:11;1.10;;;0.97;;
7173;SDS011;3628;48.654;8.932;2023-12-29T00:11:37;1.47;;;1.20;;
7173;SDS011;3628;48.654;8.932;2023-12-29T00:14:03;2.03;;;1.30;;
7173;SDS011;3628;48.654;8.932;2023-12-29T00:16:29;1.30;;;1.20;;
7173;SDS011;3628;48.654;8.932;2023-12-29T00:18:54;1.20;;;1.10;;
7173;SDS011;3628;48.654;8.932;2023-12-29T00:21:20;2.63;;;1.30;;
7173;SDS011;3628;48.654;8.932;2023-12-29T00:23:46;2.00;;;1.40;;
7173;SDS011;3628;48.654;8.932;2023-12-29T00:26:12;1.40;;;1.30;;
7173;SDS011;3628;48.654;8.932;2023-12-29T00:28:37;1.90;;;1.23;;
7173;SDS011;3628;48.654;8.932;2023-12-29T00:31:06;2.47;;;1.20;;
7173;SDS011;3628;48.654;8.932;2023-12-29T00:33:31;1.40;;;1.30;;
7173;SDS011;3628;48.654;8.932;2023-12-29T00:35:57;1.60;;;1.40;;
7173;SDS011;3628;48.654;8.932;2023-12-29T00:38:23;2.70;;;1.30;;
7173;SDS011;3628;48.654;8.932;2023-12-29T00:40:51;1.47;;;1.30;;
7173;SDS011;3628;48.654;8.932;2023-12-29T00:43:16;1.57;;;1.40;;
7173;SDS011;3628;48.654;8.932;2023-12-29T00:45:42;1.47;;;1.30;;
7173;SDS011;3628;48.654;8.932;2023-12-29T00:48:07;1.40;;;1.30;;
7173;SDS011;3628;48.654;8.932;2023-12-29T00:50:34;1.50;;;1.30;;
7173;SDS011;3628;48.654;8.932;2023-12-29T00:52:59;2.10;;;1.60;;
7173;SDS011;3628;48.654;8.932;2023-12-29T00:55:25;1.97;;;1.60;;
7173;SDS011;3628;48.654;8.932;2023-12-29T00:57:50;1.47;;;1.30;;
7173;SDS011;3628;48.654;8.932;2023-12-29T01:00:16;1.30;;;1.20;;
7173;SDS011;3628;48.654;8.932;2023-12-29T01:02:42;1.80;;;1.70;;
7173;SDS011;3628;48.654;8.932;2023-12-29T01:05:07;1.53;;;1.40;;
7173;SDS011;3628;48.654;8.932;2023-12-29T01:07:33;1.40;;;1.30;;
7173;SDS011;3628;48.654;8.932;2023-12-29T01:09:58;1.50;;;1.40;;
7173;SDS011;3628;48.654;8.932;2023-12-29T01:12:24;2.23;;;1.67;;
7173;SDS011;3628;48.654;8.932;2023-12-29T01:14:50;2.00;;;1.63;;
7173;SDS011;3628;48.654;8.932;2023-12-29T01:17:16;1.50;;;1.40;;
7173;SDS011;3628;48.654;8.932;2023-12-29T01:19:41;1.63;;;1.53;;
7173;SDS011;3628;48.654;8.932;2023-12-29T01:22:07;1.77;;;1.60;;
7173;SDS011;3628;48.654;8.932;2023-12-29T01:24:32;3.17;;;1.80;;
7173;SDS011;3628;48.654;8.932;2023-12-29T01:26:58;2.50;;;1.70;;
7173;SDS011;3628;48.654;8.932;2023-12-29T01:29:23;3.50;;;1.90;;
7173;SDS011;3628;48.654;8.932;2023-12-29T01:31:49;2.30;;;1.70;;
7173;SDS011;3628;48.654;8.932;2023-12-29T01:34:14;1.73;;;1.40;;
7173;SDS011;3628;48.654;8.932;2023-12-29T01:36:40;1.73;;;1.63;;
7173;SDS011;3628;48.654;8.932;2023-12-29T01:39:06;2.60;;;1.47;;
7173;SDS011;3628;48.654;8.932;2023-12-29T01:41:31;2.63;;;1.50;;
7173;SDS011;3628;48.654;8.932;2023-12-29T01:46:44;2.00;;;1.60;;
7173;SDS011;3628;48.654;8.932;2023-12-29T01:49:11;2.43;;;1.70;;
7173;SDS011;3628;48.654;8.932;2023-12-29T01:51:38;2.17;;;1.47;;
7173;SDS011;3628;48.654;8.932;2023-12-29T01:54:05;1.83;;;1.47;;
7173;SDS011;3628;48.654;8.932;2023-12-29T01:56:30;1.67;;;1.57;;
7173;SDS011;3628;48.654;8.932;2023-12-29T01:58:56;1.70;;;1.60;;
7173;SDS011;3628;48.654;8.932;2023-12-29T02:01:22;1.60;;;1.50;;
7173;SDS011;3628;48.654;8.932;2023-12-29T02:03:48;1.93;;;1.70;;
7173;SDS011;3628;48.654;8.932;2023-12-29T02:06:13;2.40;;;1.73;;
7173;SDS011;3628;48.654;8.932;2023-12-29T02:08:42;2.40;;;1.60;;
7173;SDS011;3628;48.654;8.932;2023-12-29T02:11:08;3.60;;;1.60;;
7173;SDS011;3628;48.654;8.932;2023-12-29T02:13:34;1.90;;;1.80;;
7173;SDS011;3628;48.654;8.932;2023-12-29T02:16:12;3.33;;;1.70;;
7173;SDS011;3628;48.654;8.932;2023-12-29T02:18:46;2.37;;;2.10;;
7173;SDS011;3628;48.654;8.932;2023-12-29T02:21:15;1.60;;;1.50;;
7173;SDS011;3628;48.654;8.932;2023-12-29T02:23:40;1.60;;;1.50;;
7173;SDS011;3628;48.654;8.932;2023-12-29T02:26:09;3.47;;;1.90;;
7173;SDS011;3628;48.654;8.932;2023-12-29T02:28:38;2.30;;;1.90;;
7173;SDS011;3628;48.654;8.932;2023-12-29T02:31:13;1.60;;;1.50;;
7173;SDS011;3628;48.654;8.932;2023-12-29T02:33:44;2.40;;;2.10;;
7173;SDS011;3628;48.654;8.932;2023-12-29T02:36:12;1.97;;;1.43;;
7173;SDS011;3628;48.654;8.932;2023-12-29T02:38:40;2.93;;;2.00;;
7173;SDS011;3628;48.654;8.932;2023-12-29T02:41:05;2.47;;;1.93;;
7173;SDS011;3628;48.654;8.932;2023-12-29T02:43:31;2.00;;;1.77;;
7173;SDS011;3628;48.654;8.932;2023-12-29T02:45:57;4.10;;;2.10;;
7173;SDS011;3628;48.654;8.932;2023-12-29T02:48:23;3.83;;;1.87;;
7173;SDS011;3628;48.654;8.932;2023-12-29T02:50:49;2.23;;;2.03;;
7173;SDS011;3628;48.654;8.932;2023-12-29T02:53:14;3.13;;;1.97;;
7173;SDS011;3628;48.654;8.932;2023-12-29T02:55:40;2.80;;;2.17;;
7173;SDS011;3628;48.654;8.932;2023-12-29T02:58:06;3.67;;;1.90;;
7173;SDS011;3628;48.654;8.932;2023-12-29T03:00:32;2.23;;;2.03;;
7173;SDS011;3628;48.654;8.932;2023-12-29T03:02:58;2.00;;;1.90;;
7173;SDS011;3628;48.654;8.932;2023-12-29T03:05:23;1.83;;;1.70;;
7173;SDS011;3628;48.654;8.932;2023-12-29T03:07:49;2.20;;;2.00;;
7173;SDS011;3628;48.654;8.932;2023-12-29T03:10:15;2.17;;;1.90;;
7173;SDS011;3628;48.654;8.932;2023-12-29T03:12:40;2.17;;;2.00;;
7173;SDS011;3628;48.654;8.932;2023-12-29T03:15:06;2.50;;;1.90;;
7173;SDS011;3628;48.654;8.932;2023-12-29T03:17:31;3.27;;;2.07;;
7173;SDS011;3628;48.654;8.932;2023-12-29T03:19:58;4.40;;;2.00;;
7173;SDS011;3628;48.654;8.932;2023-12-29T03:22:23;4.10;;;1.97;;
7173;SDS011;3628;48.654;8.932;2023-12-29T03:24:49;2.20;;;1.90;;
7173;SDS011;3628;48.654;8.932;2023-12-29T03:27:14;1.90;;;1.63;;
7173;SDS011;3628;48.654;8.932;2023-12-29T03:29:40;2.43;;;1.70;;
7173;SDS011;3628;48.654;8.932;2023-12-29T03:32:05;3.27;;;1.90;;
7173;SDS011;3628;48.654;8.932;2023-12-29T03:34:32;2.43;;;2.10;;
7173;SDS011;3628;48.654;8.932;2023-12-29T03:36:58;2.10;;;1.90;;
7173;SDS011;3628;48.654;8.932;2023-12-29T03:39:23;2.23;;;1.60;;
7173;SDS011;3628;48.654;8.932;2023-12-29T03:41:49;2.70;;;1.70;;
7173;SDS011;3628;48.654;8.932;2023-12-29T03:44:14;2.20;;;1.90;;
7173;SDS011;3628;48.654;8.932;2023-12-29T03:46:40;1.77;;;1.60;;
7173;SDS011;3628;48.654;8.932;2023-12-29T03:49:05;1.87;;;1.77;;
7173;SDS011;3628;48.654;8.932;2023-12-29T03:51:31;1.87;;;1.50;;
7173;SDS011;3628;48.654;8.932;2023-12-29T03:53:57;2.07;;;1.63;;
7173;SDS011;3628;48.654;8.932;2023-12-29T03:56:23;2.30;;;2.10;;
7173;SDS011;3628;48.654;8.932;2023-12-29T03:58:49;1.97;;;1.77;;
7173;SDS011;3628;48.654;8.932;2023-12-29T04:01:15;2.23;;;1.60;;
7173;SDS011;3628;48.654;8.932;2023-12-29T04:03:41;2.63;;;1.90;;
7173;SDS011;3628;48.654;8.932;2023-12-29T04:06:08;2.07;;;1.87;;
7173;SDS011;3628;48.654;8.932;2023-12-29T04:08:34;1.70;;;1.60;;
7173;SDS011;3628;48.654;8.932;2023-12-29T04:11:00;3.37;;;1.87;;
7173;SDS011;3628;48.654;8.932;2023-12-29T04:13:26;1.80;;;1.50;;
7173;SDS011;3628;48.654;8.932;2023-12-29T04:15:51;2.97;;;1.80;;
7173;SDS011;3628;48.654;8.932;2023-12-29T04:18:17;2.00;;;1.80;;
7173;SDS011;3628;48.654;8.932;2023-12-29T04:20:44;1.70;;;1.60;;
7173;SDS011;3628;48.654;8.932;2023-12-29T04:23:10;1.77;;;1.67;;
7173;SDS011;3628;48.654;8.932;2023-12-29T04:25:37;2.17;;;1.70;;
7173;SDS011;3628;48.654;8.932;2023-12-29T04:28:03;2.37;;;1.90;;
7173;SDS011;3628;48.654;8.932;2023-12-29T04:30:28;2.07;;;1.87;;
7173;SDS011;3628;48.654;8.932;2023-12-29T04:32:54;2.87;;;1.73;;
7173;SDS011;3628;48.654;8.932;2023-12-29T04:35:19;1.80;;;1.70;;
7173;SDS011;3628;48.654;8.932;2023-12-29T04:37:45;2.27;;;1.63;;
7173;SDS011;3628;48.654;8.932;2023-12-29T04:40:11;1.60;;;1.50;;
7173;SDS011;3628;48.654;8.932;2023-12-29T04:42:37;1.67;;;1.57;;
7173;SDS011;3628;48.654;8.932;2023-12-29T04:45:03;1.87;;;1.73;;
7173;SDS011;3628;48.654;8.932;2023-12-29T04:47:30;1.80;;;1.60;;
7173;SDS011;3628;48.654;8.932;2023-12-29T04:49:55;1.60;;;1.50;;
7173;SDS011;3628;48.654;8.932;2023-12-29T04:52:21;1.63;;;1.53;;
7173;SDS011;3628;48.654;8.932;2023-12-29T04:54:47;1.60;;;1.50;;
7173;SDS011;3628;48.654;8.932;2023-12-29T04:57:12;1.53;;;1.43;;
7173;SDS011;3628;48.654;8.932;2023-12-29T04:59:38;1.70;;;1.50;;
7173;SDS011;3628;48.654;8.932;2023-12-29T05:02:03;3.17;;;1.53;;
7173;SDS011;3628;48.654;8.932;2023-12-29T05:04:29;1.37;;;1.27;;
7173;SDS011;3628;48.654;8.932;2023-12-29T05:06:54;2.23;;;1.40;;
7173;SDS011;3628;48.654;8.932;2023-12-29T05:09:20;1.90;;;1.63;;
7173;SDS011;3628;48.654;8.932;2023-12-29T05:11:45;2.40;;;1.80;;
7173;SDS011;3628;48.654;8.932;2023-12-29T05:14:11;1.30;;;1.20;;
7173;SDS011;3628;48.654;8.932;2023-12-29T05:16:37;2.80;;;1.73;;
7173;SDS011;3628;48.654;8.932;2023-12-29T05:19:02;1.87;;;1.57;;
7173;SDS011;3628;48.654;8.932;2023-12-29T05:21:28;1.80;;;1.40;;
7173;SDS011;3628;48.654;8.932;2023-12-29T05:23:53;1.60;;;1.50;;
7173;SDS011;3628;48.654;8.932;2023-12-29T05:26:19;3.47;;;1.53;;
7173;SDS011;3628;48.654;8.932;2023-12-29T05:28:44;3.37;;;1.67;;
7173;SDS011;3628;48.654;8.932;2023-12-29T05:31:10;2.17;;;1.60;;
7173;SDS011;3628;48.654;8.932;2023-12-29T05:33:35;1.70;;;1.53;;
7173;SDS011;3628;48.654;8.932;2023-12-29T05:36:08;1.50;;;1.40;;
7173;SDS011;3628;48.654;8.932;2023-12-29T05:38:35;1.43;;;1.33;;
7173;SDS011;3628;48.654;8.932;2023-12-29T05:41:02;2.93;;;1.63;;
7173;SDS011;3628;48.654;8.932;2023-12-29T05:43:29;2.30;;;1.60;;
7173;SDS011;3628;48.654;8.932;2023-12-29T05:45:56;1.60;;;1.23;;
7173;SDS011;3628;48.654;8.932;2023-12-29T05:48:21;1.40;;;1.30;;
7173;SDS011;3628;48.654;8.932;2023-12-29T05:50:47;2.07;;;1.60;;
7173;SDS011;3628;48.654;8.932;2023-12-29T05:53:13;1.80;;;1.70;;
7173;SDS011;3628;48.654;8.932;2023-12-29T05:55:40;2.67;;;1.57;;
7173;SDS011;3628;48.654;8.932;2023-12-29T05:58:05;2.67;;;1.60;;
7173;SDS011;3628;48.654;8.932;2023-12-29T06:00:31;2.47;;;1.50;;
7173;SDS011;3628;48.654;8.932;2023-12-29T06:02:57;2.27;;;1.50;;
7173;SDS011;3628;48.654;8.932;2023-12-29T06:05:22;2.80;;;1.60;;
7173;SDS011;3628;48.654;8.932;2023-12-29T06:07:48;3.13;;;1.30;;
7173;SDS011;3628;48.654;8.932;2023-12-29T06:10:13;1.90;;;1.37;;
7173;SDS011;3628;48.654;8.932;2023-12-29T06:12:39;1.70;;;1.60;;
7173;SDS011;3628;48.654;8.932;2023-12-29T06:15:05;1.50;;;1.40;;
7173;SDS011;3628;48.654;8.932;2023-12-29T06:17:31;2.87;;;1.43;;
7173;SDS011;3628;48.654;8.932;2023-12-29T06:19:57;1.60;;;1.40;;
7173;SDS011;3628;48.654;8.932;2023-12-29T06:22:23;2.27;;;1.73;;
7173;SDS011;3628;48.654;8.932;2023-12-29T06:24:48;1.30;;;1.20;;
7173;SDS011;3628;48.654;8.932;2023-12-29T06:27:14;2.47;;;1.40;;
7173;SDS011;3628;48.654;8.932;2023-12-29T06:29:41;1.87;;;1.40;;
7173;SDS011;3628;48.654;8.932;2023-12-29T06:32:07;1.23;;;1.13;;
7173;SDS011;3628;48.654;8.932;2023-12-29T06:34:33;1.57;;;1.43;;
7173;SDS011;3628;48.654;8.932;2023-12-29T06:36:59;1.50;;;1.40;;
7173;SDS011;3628;48.654;8.932;2023-12-29T06:39:25;2.43;;;1.80;;
7173;SDS011;3628;48.654;8.932;2023-12-29T06:41:51;2.00;;;1.20;;
7173;SDS011;3628;48.654;8.932;2023-12-29T06:44:16;2.13;;;1.57;;
7173;SDS011;3628;48.654;8.932;2023-12-29T06:46:42;1.30;;;1.20;;
7173;SDS011;3628;48.654;8.932;2023-12-29T06:49:08;3.17;;;1.30;;
7173;SDS011;3628;48.654;8.932;2023-12-29T06:51:34;1.53;;;1.20;;
7173;SDS011;3628;48.654;8.932;2023-12-29T06:54:00;1.63;;;1.10;;
7173;SDS011;3628;48.654;8.932;2023-12-29T06:56:26;1.47;;;1.10;;
7173;SDS011;3628;48.654;8.932;2023-12-29T06:58:52;1.37;;;1.27;;
7173;SDS011;3628;48.654;8.932;2023-12-29T07:01:18;1.27;;;1.00;;
7173;SDS011;3628;48.654;8.932;2023-12-29T07:03:43;1.90;;;1.20;;
7173;SDS011;3628;48.654;8.932;2023-12-29T07:06:09;1.30;;;1.20;;
7173;SDS011;3628;48.654;8.932;2023-12-29T07:08:35;1.40;;;1.10;;
7173;SDS011;3628;48.654;8.932;2023-12-29T07:11:01;2.30;;;1.30;;
7173;SDS011;3628;48.654;8.932;2023-12-29T07:13:27;1.37;;;1.10;;
7173;SDS011;3628;48.654;8.932;2023-12-29T07:15:53;1.33;;;1.10;;
7173;SDS011;3628;48.654;8.932;2023-12-29T07:18:19;1.57;;;1.20;;
7173;SDS011;3628;48.654;8.932;2023-12-29T07:20:45;1.77;;;1.30;;
7173;SDS011;3628;48.654;8.932;2023-12-29T07:23:10;1.70;;;1.23;;
7173;SDS011;3628;48.654;8.932;2023-12-29T07:25:36;2.73;;;1.13;;
7173;SDS011;3628;48.654;8.932;2023-12-29T07:28:01;2.30;;;1.10;;
7173;SDS011;3628;48.654;8.932;2023-12-29T07:30:27;1.40;;;1.30;;
7173;SDS011;3628;48.654;8.932;2023-12-29T07:32:52;3.57;;;1.40;;
7173;SDS011;3628;48.654;8.932;2023-12-29T07:35:18;3.23;;;1.30;;
7173;SDS011;3628;48.654;8.932;2023-12-29T07:37:45;1.50;;;1.40;;
7173;SDS011;3628;48.654;8.932;2023-12-29T07:40:13;1.77;;;1.30;;
7173;SDS011;3628;48.654;8.932;2023-12-29T07:42:40;2.50;;;2.00;;
7173;SDS011;3628;48.654;8.932;2023-12-29T07:45:06;2.10;;;1.50;;
7173;SDS011;3628;48.654;8.932;2023-12-29T07:47:32;2.13;;;1.60;;
7173;SDS011;3628;48.654;8.932;2023-12-29T07:49:57;1.70;;;1.60;;
7173;SDS011;3628;48.654;8.932;2023-12-29T07:52:23;1.50;;;1.40;;
7173;SDS011;3628;48.654;8.932;2023-12-29T07:54:48;1.50;;;1.40;;
7173;SDS011;3628;48.654;8.932;2023-12-29T07:57:14;2.83;;;1.40;;
7173;SDS011;3628;48.654;8.932;2023-12-29T07:59:40;2.70;;;1.50;;
7173;SDS011;3628;48.654;8.932;2023-12-29T08:02:05;1.47;;;1.30;;
7173;SDS011;3628;48.654;8.932;2023-12-29T08:04:31;1.47;;;1.30;;
7173;SDS011;3628;48.654;8.932;2023-12-29T08:06:57;1.80;;;1.40;;
7173;SDS011;3628;48.654;8.932;2023-12-29T08:09:22;3.03;;;1.20;;
7173;SDS011;3628;48.654;8.932;2023-12-29T08:11:48;2.23;;;1.20;;
7173;SDS011;3628;48.654;8.932;2023-12-29T08:14:14;2.67;;;1.57;;
7173;SDS011;3628;48.654;8.932;2023-12-29T08:16:40;1.57;;;1.40;;
7173;SDS011;3628;48.654;8.932;2023-12-29T08:19:06;2.33;;;1.27;;
7173;SDS011;3628;48.654;8.932;2023-12-29T08:21:35;2.97;;;1.30;;
7173;SDS011;3628;48.654;8.932;2023-12-29T08:24:01;2.90;;;1.40;;
7173;SDS011;3628;48.654;8.932;2023-12-29T08:26:27;4.00;;;1.30;;
7173;SDS011;3628;48.654;8.932;2023-12-29T08:28:52;1.30;;;1.20;;
7173;SDS011;3628;48.654;8.932;2023-12-29T08:31:18;2.53;;;1.40;;
7173;SDS011;3628;48.654;8.932;2023-12-29T08:33:44;1.60;;;1.50;;
7173;SDS011;3628;48.654;8.932;2023-12-29T08:36:11;1.50;;;1.40;;
7173;SDS011;3628;48.654;8.932;2023-12-29T08:38:37;1.83;;;1.23;;
7173;SDS011;3628;48.654;8.932;2023-12-29T08:41:03;1.53;;;1.30;;
7173;SDS011;3628;48.654;8.932;2023-12-29T08:43:29;1.53;;;1.20;;
7173;SDS011;3628;48.654;8.932;2023-12-29T08:45:55;2.80;;;1.30;;
7173;SDS011;3628;48.654;8.932;2023-12-29T08:48:21;1.80;;;1.60;;
7173;SDS011;3628;48.654;8.932;2023-12-29T08:50:47;1.50;;;1.23;;
7173;SDS011;3628;48.654;8.932;2023-12-29T08:53:14;1.70;;;1.40;;
7173;SDS011;3628;48.654;8.932;2023-12-29T08:55:40;2.30;;;1.20;;
7173;SDS011;3628;48.654;8.932;2023-12-29T08:58:06;1.20;;;1.10;;
7173;SDS011;3628;48.654;8.932;2023-12-29T09:00:32;1.43;;;1.20;;
7173;SDS011;3628;48.654;8.932;2023-12-29T09:02:58;2.43;;;1.23;;
7173;SDS011;3628;48.654;8.932;2023-12-29T09:05:24;1.10;;;1.00;;
7173;SDS011;3628;48.654;8.932;2023-12-29T09:07:49;1.27;;;1.17;;
7173;SDS011;3628;48.654;8.932;2023-12-29T09:10:15;1.23;;;0.97;;
7173;SDS011;3628;48.654;8.932;2023-12-29T09:12:40;0.90;;;0.90;;
7173;SDS011;3628;48.654;8.932;2023-12-29T09:15:06;1.37;;;1.23;;
7173;SDS011;3628;48.654;8.932;2023-12-29T09:17:33;1.07;;;0.83;;
7173;SDS011;3628;48.654;8.932;2023-12-29T09:19:59;1.70;;;1.60;;
7173;SDS011;3628;48.654;8.932;2023-12-29T09:22:24;0.80;;;0.80;;
7173;SDS011;3628;48.654;8.932;2023-12-29T09:24:50;1.40;;;1.20;;
7173;SDS011;3628;48.654;8.932;2023-12-29T09:27:15;2.17;;;1.53;;
7173;SDS011;3628;48.654;8.932;2023-12-29T09:29:42;3.00;;;1.37;;
7173;SDS011;3628;48.654;8.932;2023-12-29T09:32:08;1.50;;;1.10;;
7173;SDS011;3628;48.654;8.932;2023-12-29T09:34:33;1.23;;;1.00;;
7173;SDS011;3628;48.654;8.932;2023-12-29T09:36:59;1.30;;;1.17;;
7173;SDS011;3628;48.654;8.932;2023-12-29T09:39:25;2.03;;;1.10;;
7173;SDS011;3628;48.654;8.932;2023-12-29T09:41:55;1.97;;;0.80;;
7173;SDS011;3628;48.654;8.932;2023-12-29T09:44:23;1.37;;;1.27;;
7173;SDS011;3628;48.654;8.932;2023-12-29T09:46:54;1.60;;;1.23;;
7173;SDS011;3628;48.654;8.932;2023-12-29T09:49:20;1.80;;;1.07;;
7173;SDS011;3628;48.654;8.932;2023-12-29T09:51:46;1.20;;;1.10;;
7173;SDS011;3628;48.654;8.932;2023-12-29T09:54:13;1.10;;;1.00;;
7173;SDS011;3628;48.654;8.932;2023-12-29T09:56:40;2.07;;;1.20;;
7173;SDS011;3628;48.654;8.932;2023-12-29T09:59:08;2.30;;;1.00;;
7173;SDS011;3628;48.654;8.932;2023-12-29T10:01:35;1.90;;;1.03;;
7173;SDS011;3628;48.654;8.932;2023-12-29T10:04:02;1.23;;;0.90;;
7173;SDS011;3628;48.654;8.932;2023-12-29T10:06:28;1.73;;;1.40;;
7173;SDS011;3628;48.654;8.932;2023-12-29T10:08:58;0.87;;;0.87;;
7173;SDS011;3628;48.654;8.932;2023-12-29T10:11:24;1.80;;;1.20;;
7173;SDS011;3628;48.654;8.932;2023-12-29T10:13:52;0.97;;;0.97;;
7173;SDS011;3628;48.654;8.932;2023-12-29T10:22:18;1.30;;;0.90;;
7173;SDS011;3628;48.654;8.932;2023-12-29T10:24:51;1.23;;;0.90;;
7173;SDS011;3628;48.654;8.932;2023-12-29T10:27:17;1.03;;;1.00;;
7173;SDS011;3628;48.654;8.932;2023-12-29T10:29:43;3.30;;;1.23;;
7173;SDS011;3628;48.654;8.932;2023-12-29T10:32:09;1.27;;;1.10;;
7173;SDS011;3628;48.654;8.932;2023-12-29T10:34:34;2.30;;;1.03;;
7173;SDS011;3628;48.654;8.932;2023-12-29T10:37:00;1.73;;;1.10;;
7173;SDS011;3628;48.654;8.932;2023-12-29T10:39:40;1.03;;;0.93;;
7173;SDS011;3628;48.654;8.932;2023-12-29T10:42:20;1.70;;;0.90;;
7173;SDS011;3628;48.654;8.932;2023-12-29T10:44:46;2.53;;;0.93;;
7173;SDS011;3628;48.654;8.932;2023-12-29T10:47:12;0.93;;;0.80;;
7173;SDS011;3628;48.654;8.932;2023-12-29T10:49:39;2.83;;;1.10;;
7173;SDS011;3628;48.654;8.932;2023-12-29T10:52:14;3.50;;;1.40;;
7173;SDS011;3628;48.654;8.932;2023-12-29T10:54:41;1.17;;;0.80;;
7173;SDS011;3628;48.654;8.932;2023-12-29T10:57:09;1.03;;;0.90;;
7173;SDS011;3628;48.654;8.932;2023-12-29T10:59:37;1.13;;;0.90;;
7173;SDS011;3628;48.654;8.932;2023-12-29T11:02:03;1.53;;;0.80;;
7173;SDS011;3628;48.654;8.932;2023-12-29T11:04:29;2.07;;;0.70;;
7173;SDS011;3628;48.654;8.932;2023-12-29T11:06:54;0.80;;;0.80;;
7173;SDS011;3628;48.654;8.932;2023-12-29T11:09:27;0.70;;;0.67;;
7173;SDS011;3628;48.654;8.932;2023-12-29T11:12:04;0.97;;;0.63;;
7173;SDS011;3628;48.654;8.932;2023-12-29T11:14:33;0.50;;;0.50;;
7173;SDS011;3628;48.654;8.932;2023-12-29T11:16:59;0.60;;;0.60;;
7173;SDS011;3628;48.654;8.932;2023-12-29T11:19:25;0.40;;;0.40;;
7173;SDS011;3628;48.654;8.932;2023-12-29T11:21:52;0.70;;;0.70;;
7173;SDS011;3628;48.654;8.932;2023-12-29T11:24:22;0.50;;;0.50;;
7173;SDS011;3628;48.654;8.932;2023-12-29T11:26:51;1.60;;;0.70;;
7173;SDS011;3628;48.654;8.932;2023-12-29T11:29:17;0.67;;;0.60;;
7173;SDS011;3628;48.654;8.932;2023-12-29T11:31:44;2.67;;;0.70;;
7173;SDS011;3628;48.654;8.932;2023-12-29T11:34:16;0.80;;;0.80;;
7173;SDS011;3628;48.654;8.932;2023-12-29T11:36:48;0.90;;;0.70;;
7173;SDS011;3628;48.654;8.932;2023-12-29T11:39:20;0.40;;;0.40;;
7173;SDS011;3628;48.654;8.932;2023-12-29T11:44:44;1.53;;;0.73;;
7173;SDS011;3628;48.654;8.932;2023-12-29T11:47:56;0.83;;;0.70;;
7173;SDS011;3628;48.654;8.932;2023-12-29T11:50:00;0.70;;;0.50;;
7173;SDS011;3628;48.654;8.932;2023-12-29T11:52:37;1.13;;;0.53;;
7173;SDS011;3628;48.654;8.932;2023-12-29T11:55:09;1.33;;;0.50;;
7173;SDS011;3628;48.654;8.932;2023-12-29T11:57:42;0.40;;;0.40;;
7173;SDS011;3628;48.654;8.932;2023-12-29T12:00:09;0.70;;;0.70;;
7173;SDS011;3628;48.654;8.932;2023-12-29T12:02:35;0.73;;;0.70;;
7173;SDS011;3628;48.654;8.932;2023-12-29T12:05:01;0.43;;;0.43;;
7173;SDS011;3628;48.654;8.932;2023-12-29T12:10:27;0.83;;;0.40;;
7173;SDS011;3628;48.654;8.932;2023-12-29T12:12:44;0.60;;;0.50;;
7173;SDS011;3628;48.654;8.932;2023-12-29T12:20:31;1.43;;;0.83;;
7173;SDS011;3628;48.654;8.932;2023-12-29T12:25:27;0.50;;;0.47;;
7173;SDS011;3628;48.654;8.932;2023-12-29T12:27:54;0.80;;;0.60;;
7173;SDS011;3628;48.654;8.932;2023-12-29T12:30:20;0.60;;;0.60;;
7173;SDS011;3628;48.654;8.932;2023-12-29T12:32:47;0.87;;;0.60;;
7173;SDS011;3628;48.654;8.932;2023-12-29T12:35:26;1.50;;;0.50;;
7173;SDS011;3628;48.654;8.932;2023-12-29T12:40:39;0.33;;;0.30;;
7173;SDS011;3628;48.654;8.932;2023-12-29T12:43:05;0.70;;;0.60;;
7173;SDS011;3628;48.654;8.932;2023-12-29T12:45:40;0.63;;;0.40;;
7173;SDS011;3628;48.654;8.932;2023-12-29T12:48:13;1.80;;;0.97;;
7173;SDS011;3628;48.654;8.932;2023-12-29T12:50:59;0.80;;;0.70;;
7173;SDS011;3628;48.654;8.932;2023-12-29T12:53:25;0.50;;;0.50;;
7173;SDS011;3628;48.654;8.932;2023-12-29T12:55:52;0.50;;;0.50;;
7173;SDS011;3628;48.654;8.932;2023-12-29T12:58:19;0.60;;;0.60;;
7173;SDS011;3628;48.654;8.932;2023-12-29T13:00:47;0.67;;;0.53;;
7173;SDS011;3628;48.654;8.932;2023-12-29T13:03:14;0.80;;;0.57;;
7173;SDS011;3628;48.654;8.932;2023-12-29T13:05:41;0.83;;;0.57;;
7173;SDS011;3628;48.654;8.932;2023-12-29T13:08:07;1.17;;;0.63;;
7173;SDS011;3628;48.654;8.932;2023-12-29T13:10:33;1.90;;;0.77;;
7173;SDS011;3628;48.654;8.932;2023-12-29T13:12:59;0.50;;;0.50;;
7173;SDS011;3628;48.654;8.932;2023-12-29T13:15:24;0.50;;;0.50;;
7173;SDS011;3628;48.654;8.932;2023-12-29T13:17:53;1.90;;;0.60;;
7173;SDS011;3628;48.654;8.932;2023-12-29T13:20:19;0.70;;;0.70;;
7173;SDS011;3628;48.654;8.932;2023-12-29T13:22:48;0.47;;;0.47;;
7173;SDS011;3628;48.654;8.932;2023-12-29T13:25:20;0.70;;;0.70;;
7173;SDS011;3628;48.654;8.932;2023-12-29T13:27:49;0.83;;;0.70;;
7173;SDS011;3628;48.654;8.932;2023-12-29T13:30:15;0.70;;;0.70;;
7173;SDS011;3628;48.654;8.932;2023-12-29T13:32:43;1.50;;;0.70;;
7173;SDS011;3628;48.654;8.932;2023-12-29T13:35:19;0.50;;;0.50;;
7173;SDS011;3628;48.654;8.932;2023-12-29T13:40:41;1.13;;;0.60;;
7173;SDS011;3628;48.654;8.932;2023-12-29T13:43:10;0.70;;;0.60;;
7173;SDS011;3628;48.654;8.932;2023-12-29T13:45:41;0.70;;;0.70;;
7173;SDS011;3628;48.654;8.932;2023-12-29T13:48:07;0.73;;;0.70;;
7173;SDS011;3628;48.654;8.932;2023-12-29T13:50:34;0.80;;;0.70;;
7173;SDS011;3628;48.654;8.932;2023-12-29T13:53:00;0.60;;;0.60;;
7173;SDS011;3628;48.654;8.932;2023-12-29T13:55:25;0.60;;;0.60;;
7173;SDS011;3628;48.654;8.932;2023-12-29T13:57:51;0.40;;;0.40;;
7173;SDS011;3628;48.654;8.932;2023-12-29T14:00:19;0.77;;;0.70;;
7173;SDS011;3628;48.654;8.932;2023-12-29T14:07:53;0.70;;;0.70;;
7173;SDS011;3628;48.654;8.932;2023-12-29T14:10:31;0.80;;;0.67;;
7173;SDS011;3628;48.654;8.932;2023-12-29T14:15:36;0.80;;;0.60;;
7173;SDS011;3628;48.654;8.932;2023-12-29T14:18:04;0.70;;;0.70;;
7173;SDS011;3628;48.654;8.932;2023-12-29T14:20:47;1.00;;;0.80;;
7173;SDS011;3628;48.654;8.932;2023-12-29T14:23:12;1.40;;;0.80;;
7173;SDS011;3628;48.654;8.932;2023-12-29T14:25:38;1.67;;;0.67;;
7173;SDS011;3628;48.654;8.932;2023-12-29T14:28:13;1.57;;;0.83;;
7173;SDS011;3628;48.654;8.932;2023-12-29T14:30:40;1.53;;;0.63;;
7173;SDS011;3628;48.654;8.932;2023-12-29T14:33:06;0.70;;;0.70;;
7173;SDS011;3628;48.654;8.932;2023-12-29T14:35:32;0.90;;;0.50;;
7173;SDS011;3628;48.654;8.932;2023-12-29T14:37:58;0.63;;;0.60;;
7173;SDS011;3628;48.654;8.932;2023-12-29T14:40:24;1.07;;;0.50;;
7173;SDS011;3628;48.654;8.932;2023-12-29T14:42:49;0.63;;;0.60;;
7173;SDS011;3628;48.654;8.932;2023-12-29T14:45:15;0.53;;;0.40;;
7173;SDS011;3628;48.654;8.932;2023-12-29T14:47:40;1.27;;;0.70;;
7173;SDS011;3628;48.654;8.932;2023-12-29T14:50:06;0.83;;;0.63;;
7173;SDS011;3628;48.654;8.932;2023-12-29T14:52:32;0.60;;;0.60;;
7173;SDS011;3628;48.654;8.932;2023-12-29T14:54:57;0.97;;;0.67;;
7173;SDS011;3628;48.654;8.932;2023-12-29T14:57:23;2.43;;;0.90;;
7173;SDS011;3628;48.654;8.932;2023-12-29T14:59:49;3.40;;;0.70;;
7173;SDS011;3628;48.654;8.932;2023-12-29T15:02:14;0.67;;;0.67;;
7173;SDS011;3628;48.654;8.932;2023-12-29T15:04:40;0.80;;;0.63;;
7173;SDS011;3628;48.654;8.932;2023-12-29T15:07:06;0.70;;;0.67;;
7173;SDS011;3628;48.654;8.932;2023-12-29T15:09:31;0.87;;;0.60;;
7173;SDS011;3628;48.654;8.932;2023-12-29T15:11:59;1.13;;;0.80;;
7173;SDS011;3628;48.654;8.932;2023-12-29T15:14:24;0.70;;;0.63;;
7173;SDS011;3628;48.654;8.932;2023-12-29T15:16:50;1.37;;;0.60;;
7173;SDS011;3628;48.654;8.932;2023-12-29T15:19:15;0.97;;;0.70;;
7173;SDS011;3628;48.654;8.932;2023-12-29T15:21:41;0.97;;;0.73;;
7173;SDS011;3628;48.654;8.932;2023-12-29T15:24:07;0.67;;;0.67;;
7173;SDS011;3628;48.654;8.932;2023-12-29T15:26:33;1.53;;;0.70;;
7173;SDS011;3628;48.654;8.932;2023-12-29T15:28:58;0.70;;;0.70;;
7173;SDS011;3628;48.654;8.932;2023-12-29T15:31:24;1.40;;;0.80;;
7173;SDS011;3628;48.654;8.932;2023-12-29T15:33:50;1.27;;;0.90;;
7173;SDS011;3628;48.654;8.932;2023-12-29T15:36:17;1.47;;;0.90;;
7173;SDS011;3628;48.654;8.932;2023-12-29T15:38:48;0.90;;;0.80;;
7173;SDS011;3628;48.654;8.932;2023-12-29T15:41:14;1.00;;;0.83;;
7173;SDS011;3628;48.654;8.932;2023-12-29T15:43:40;1.47;;;0.70;;
7173;SDS011;3628;48.654;8.932;2023-12-29T15:46:18;2.00;;;0.80;;
7173;SDS011;3628;48.654;8.932;2023-12-29T15:48:47;0.70;;;0.70;;